sensor_id;sensor_type;location;lat;lon;timestamp;temperature;humidity
15364;DHT22;7781;49.690;6.472;2023-01-15T00:02:25;8.80;99.90
15364;DHT22;7781;49.690;6.472;2023-01-15T00:04:55;8.80;99.90
15364;DHT22;7781;49.690;6.472;2023-01-15T00:07:24;8.80;99.90
15364;DHT22;7781;49.690;6.472;2023-01-15T00:09:55;8.80;99.90
15364;DHT22;7781;49.690;6.472;2023-01-15T00:12:25;8.90;99.90
15364;DHT22;7781;49.690;6.472;2023-01-15T00:14:53;8.90;99.90
15364;DHT22;7781;49.690;6.472;2023-01-15T00:17:24;8.80;99.90
15364;DHT22;7781;49.690;6.472;2023-01-15T00:19:54;8.80;99.90
15364;DHT22;7781;49.690;6.472;2023-01-15T00:22:23;8.70;99.90
15364;DHT22;7781;49.690;6.472;2023-01-15T00:24:53;8.60;99.90
15364;DHT22;7781;49.690;6.472;2023-01-15T00:27:44;8.50;99.90
15364;DHT22;7781;49.690;6.472;2023-01-15T00:30:16;8.40;99.90
15364;DHT22;7781;49.690;6.472;2023-01-15T00:32:44;8.40;99.90
15364;DHT22;7781;49.690;6.472;2023-01-15T00:35:15;8.30;99.90
15364;DHT22;7781;49.690;6.472;2023-01-15T00:37:44;8.30;99.90
15364;DHT22;7781;49.690;6.472;2023-01-15T00:40:16;8.30;99.90
15364;DHT22;7781;49.690;6.472;2023-01-15T00:42:45;8.30;99.90
15364;DHT22;7781;49.690;6.472;2023-01-15T00:45:21;8.30;99.90
15364;DHT22;7781;49.690;6.472;2023-01-15T00:47:50;8.30;99.90
15364;DHT22;7781;49.690;6.472;2023-01-15T00:50:20;8.30;99.90
15364;DHT22;7781;49.690;6.472;2023-01-15T00:52:48;8.20;99.90
15364;DHT22;7781;49.690;6.472;2023-01-15T00:55:18;8.20;99.90
15364;DHT22;7781;49.690;6.472;2023-01-15T00:57:47;8.20;99.90
15364;DHT22;7781;49.690;6.472;2023-01-15T01:00:17;8.20;99.90
15364;DHT22;7781;49.690;6.472;2023-01-15T01:02:45;8.10;99.90
15364;DHT22;7781;49.690;6.472;2023-01-15T01:05:14;8.10;99.90
15364;DHT22;7781;49.690;6.472;2023-01-15T01:07:43;8.10;99.90
15364;DHT22;7781;49.690;6.472;2023-01-15T01:10:13;8.00;99.90
15364;DHT22;7781;49.690;6.472;2023-01-15T01:12:43;8.10;99.90
15364;DHT22;7781;49.690;6.472;2023-01-15T01:15:12;8.00;99.90
15364;DHT22;7781;49.690;6.472;2023-01-15T01:17:42;8.00;99.90
15364;DHT22;7781;49.690;6.472;2023-01-15T01:20:12;7.90;99.90
15364;DHT22;7781;49.690;6.472;2023-01-15T01:22:43;7.80;99.90
15364;DHT22;7781;49.690;6.472;2023-01-15T01:25:13;7.70;99.90
15364;DHT22;7781;49.690;6.472;2023-01-15T01:27:48;7.60;99.90
15364;DHT22;7781;49.690;6.472;2023-01-15T01:30:17;7.60;99.90
15364;DHT22;7781;49.690;6.472;2023-01-15T01:32:45;7.60;99.90
15364;DHT22;7781;49.690;6.472;2023-01-15T01:35:16;7.60;99.90
15364;DHT22;7781;49.690;6.472;2023-01-15T01:37:48;7.50;99.90
15364;DHT22;7781;49.690;6.472;2023-01-15T01:40:18;7.50;99.90
15364;DHT22;7781;49.690;6.472;2023-01-15T01:42:48;7.40;99.90
15364;DHT22;7781;49.690;6.472;2023-01-15T01:45:24;7.30;99.90
15364;DHT22;7781;49.690;6.472;2023-01-15T01:47:55;7.20;99.90
15364;DHT22;7781;49.690;6.472;2023-01-15T01:50:29;7.10;99.90
15364;DHT22;7781;49.690;6.472;2023-01-15T01:53:03;7.00;99.90
15364;DHT22;7781;49.690;6.472;2023-01-15T01:55:34;7.00;99.90
15364;DHT22;7781;49.690;6.472;2023-01-15T01:58:07;6.90;99.90
15364;DHT22;7781;49.690;6.472;2023-01-15T02:00:40;6.90;99.90
15364;DHT22;7781;49.690;6.472;2023-01-15T02:03:15;6.80;99.90
15364;DHT22;7781;49.690;6.472;2023-01-15T02:05:49;6.70;99.90
15364;DHT22;7781;49.690;6.472;2023-01-15T02:08:21;6.70;99.90
15364;DHT22;7781;49.690;6.472;2023-01-15T02:10:51;6.70;99.90
15364;DHT22;7781;49.690;6.472;2023-01-15T02:13:36;6.70;99.90
15364;DHT22;7781;49.690;6.472;2023-01-15T02:16:12;6.70;99.90
15364;DHT22;7781;49.690;6.472;2023-01-15T02:18:49;6.70;99.90
15364;DHT22;7781;49.690;6.472;2023-01-15T02:21:25;6.70;99.90
15364;DHT22;7781;49.690;6.472;2023-01-15T02:24:06;6.70;99.90
15364;DHT22;7781;49.690;6.472;2023-01-15T02:27:07;6.70;99.90
15364;DHT22;7781;49.690;6.472;2023-01-15T02:29:44;6.70;99.90
15364;DHT22;7781;49.690;6.472;2023-01-15T02:32:26;6.70;99.90
15364;DHT22;7781;49.690;6.472;2023-01-15T02:35:00;6.70;99.90
15364;DHT22;7781;49.690;6.472;2023-01-15T02:37:33;6.70;99.90
15364;DHT22;7781;49.690;6.472;2023-01-15T02:40:07;6.70;99.90
15364;DHT22;7781;49.690;6.472;2023-01-15T02:42:40;6.70;99.90
15364;DHT22;7781;49.690;6.472;2023-01-15T02:45:12;6.70;99.90
15364;DHT22;7781;49.690;6.472;2023-01-15T02:47:43;6.80;99.90
15364;DHT22;7781;49.690;6.472;2023-01-15T02:50:33;6.80;99.90
15364;DHT22;7781;49.690;6.472;2023-01-15T02:53:06;6.90;99.90
15364;DHT22;7781;49.690;6.472;2023-01-15T02:55:42;6.80;99.90
15364;DHT22;7781;49.690;6.472;2023-01-15T02:58:18;6.80;99.90
15364;DHT22;7781;49.690;6.472;2023-01-15T03:00:48;6.80;99.90
15364;DHT22;7781;49.690;6.472;2023-01-15T03:03:24;6.80;99.90
15364;DHT22;7781;49.690;6.472;2023-01-15T03:05:59;6.80;99.90
15364;DHT22;7781;49.690;6.472;2023-01-15T03:08:30;6.70;99.90
15364;DHT22;7781;49.690;6.472;2023-01-15T03:11:04;6.70;99.90
15364;DHT22;7781;49.690;6.472;2023-01-15T03:13:45;6.60;99.90
15364;DHT22;7781;49.690;6.472;2023-01-15T03:16:21;6.60;99.90
15364;DHT22;7781;49.690;6.472;2023-01-15T03:19:09;6.50;99.90
15364;DHT22;7781;49.690;6.472;2023-01-15T03:21:45;6.50;99.90
15364;DHT22;7781;49.690;6.472;2023-01-15T03:24:20;6.40;99.90
15364;DHT22;7781;49.690;6.472;2023-01-15T03:26:52;6.40;99.90
15364;DHT22;7781;49.690;6.472;2023-01-15T03:29:25;6.40;99.90
15364;DHT22;7781;49.690;6.472;2023-01-15T03:31:55;6.50;99.90
15364;DHT22;7781;49.690;6.472;2023-01-15T03:34:33;6.50;99.90
15364;DHT22;7781;49.690;6.472;2023-01-15T03:37:07;6.50;99.90
15364;DHT22;7781;49.690;6.472;2023-01-15T03:39:37;6.40;99.90
15364;DHT22;7781;49.690;6.472;2023-01-15T03:42:35;6.30;99.90
15364;DHT22;7781;49.690;6.472;2023-01-15T03:45:16;6.30;99.90
15364;DHT22;7781;49.690;6.472;2023-01-15T03:47:53;6.30;99.90
15364;DHT22;7781;49.690;6.472;2023-01-15T03:50:27;6.20;99.90
15364;DHT22;7781;49.690;6.472;2023-01-15T03:53:07;6.20;99.90
15364;DHT22;7781;49.690;6.472;2023-01-15T03:55:50;6.20;99.90
15364;DHT22;7781;49.690;6.472;2023-01-15T03:58:25;6.20;99.90
15364;DHT22;7781;49.690;6.472;2023-01-15T04:01:01;6.10;99.90
15364;DHT22;7781;49.690;6.472;2023-01-15T04:03:33;6.10;99.90
15364;DHT22;7781;49.690;6.472;2023-01-15T04:06:05;6.10;99.90
15364;DHT22;7781;49.690;6.472;2023-01-15T04:08:38;6.10;99.90
15364;DHT22;7781;49.690;6.472;2023-01-15T04:11:08;6.10;99.90
15364;DHT22;7781;49.690;6.472;2023-01-15T04:13:43;6.10;99.90
15364;DHT22;7781;49.690;6.472;2023-01-15T04:16:26;6.10;99.90
15364;DHT22;7781;49.690;6.472;2023-01-15T04:18:54;6.10;99.90
15364;DHT22;7781;49.690;6.472;2023-01-15T04:21:25;6.00;99.90
15364;DHT22;7781;49.690;6.472;2023-01-15T04:23:53;6.00;99.90
15364;DHT22;7781;49.690;6.472;2023-01-15T04:26:22;6.00;99.90
15364;DHT22;7781;49.690;6.472;2023-01-15T04:28:51;6.00;99.90
15364;DHT22;7781;49.690;6.472;2023-01-15T04:31:20;6.00;99.90
15364;DHT22;7781;49.690;6.472;2023-01-15T04:33:50;5.90;99.90
15364;DHT22;7781;49.690;6.472;2023-01-15T04:36:18;5.80;99.90
15364;DHT22;7781;49.690;6.472;2023-01-15T04:38:47;5.80;99.90
15364;DHT22;7781;49.690;6.472;2023-01-15T04:41:15;5.70;99.90
15364;DHT22;7781;49.690;6.472;2023-01-15T04:44:01;5.70;99.90
15364;DHT22;7781;49.690;6.472;2023-01-15T04:46:39;5.70;99.90
15364;DHT22;7781;49.690;6.472;2023-01-15T04:49:11;5.60;99.90
15364;DHT22;7781;49.690;6.472;2023-01-15T04:51:40;5.60;99.90
15364;DHT22;7781;49.690;6.472;2023-01-15T04:54:10;5.60;99.90
15364;DHT22;7781;49.690;6.472;2023-01-15T04:56:41;5.50;99.90
15364;DHT22;7781;49.690;6.472;2023-01-15T04:59:11;5.50;99.90
15364;DHT22;7781;49.690;6.472;2023-01-15T05:01:41;5.50;99.90
15364;DHT22;7781;49.690;6.472;2023-01-15T05:04:31;5.50;99.90
15364;DHT22;7781;49.690;6.472;2023-01-15T05:07:00;5.50;99.90
15364;DHT22;7781;49.690;6.472;2023-01-15T05:09:29;5.50;99.90
15364;DHT22;7781;49.690;6.472;2023-01-15T05:11:57;5.50;99.90
15364;DHT22;7781;49.690;6.472;2023-01-15T05:14:26;5.50;99.90
15364;DHT22;7781;49.690;6.472;2023-01-15T05:16:54;5.50;99.90
15364;DHT22;7781;49.690;6.472;2023-01-15T05:19:23;5.40;99.90
15364;DHT22;7781;49.690;6.472;2023-01-15T05:21:54;5.40;99.90
15364;DHT22;7781;49.690;6.472;2023-01-15T05:24:22;5.40;99.90
15364;DHT22;7781;49.690;6.472;2023-01-15T05:26:51;5.40;99.90
15364;DHT22;7781;49.690;6.472;2023-01-15T05:29:22;5.50;99.90
15364;DHT22;7781;49.690;6.472;2023-01-15T05:31:51;5.50;99.90
15364;DHT22;7781;49.690;6.472;2023-01-15T05:34:19;5.50;99.90
15364;DHT22;7781;49.690;6.472;2023-01-15T05:36:48;5.50;99.90
15364;DHT22;7781;49.690;6.472;2023-01-15T05:39:20;5.50;99.90
15364;DHT22;7781;49.690;6.472;2023-01-15T05:41:49;5.50;99.90
15364;DHT22;7781;49.690;6.472;2023-01-15T05:44:21;5.50;99.90
15364;DHT22;7781;49.690;6.472;2023-01-15T05:46:51;5.50;99.90
15364;DHT22;7781;49.690;6.472;2023-01-15T05:49:23;5.50;99.90
15364;DHT22;7781;49.690;6.472;2023-01-15T05:51:54;5.50;99.90
15364;DHT22;7781;49.690;6.472;2023-01-15T05:54:26;5.50;99.90
15364;DHT22;7781;49.690;6.472;2023-01-15T05:56:55;5.40;99.90
15364;DHT22;7781;49.690;6.472;2023-01-15T05:59:25;5.30;99.90
15364;DHT22;7781;49.690;6.472;2023-01-15T06:01:54;5.30;99.90
15364;DHT22;7781;49.690;6.472;2023-01-15T06:04:24;5.30;99.90
15364;DHT22;7781;49.690;6.472;2023-01-15T06:06:54;5.20;99.90
15364;DHT22;7781;49.690;6.472;2023-01-15T06:09:25;5.20;99.90
15364;DHT22;7781;49.690;6.472;2023-01-15T06:11:56;5.10;99.90
15364;DHT22;7781;49.690;6.472;2023-01-15T06:14:26;5.00;99.90
15364;DHT22;7781;49.690;6.472;2023-01-15T06:16:55;5.00;99.90
15364;DHT22;7781;49.690;6.472;2023-01-15T06:19:23;4.90;99.90
15364;DHT22;7781;49.690;6.472;2023-01-15T06:21:53;4.80;99.90
15364;DHT22;7781;49.690;6.472;2023-01-15T06:24:24;4.80;99.90
15364;DHT22;7781;49.690;6.472;2023-01-15T06:26:52;4.80;99.90
15364;DHT22;7781;49.690;6.472;2023-01-15T06:29:21;4.70;99.90
15364;DHT22;7781;49.690;6.472;2023-01-15T06:31:49;4.70;99.90
15364;DHT22;7781;49.690;6.472;2023-01-15T06:34:18;4.70;99.90
15364;DHT22;7781;49.690;6.472;2023-01-15T06:37:01;4.80;99.90
15364;DHT22;7781;49.690;6.472;2023-01-15T06:39:32;4.80;99.90
15364;DHT22;7781;49.690;6.472;2023-01-15T06:42:01;4.80;99.90
15364;DHT22;7781;49.690;6.472;2023-01-15T06:44:49;4.80;99.90
15364;DHT22;7781;49.690;6.472;2023-01-15T06:47:35;4.70;99.90
15364;DHT22;7781;49.690;6.472;2023-01-15T06:50:04;4.70;99.90
15364;DHT22;7781;49.690;6.472;2023-01-15T06:52:33;4.70;99.90
15364;DHT22;7781;49.690;6.472;2023-01-15T06:55:06;4.70;99.90
15364;DHT22;7781;49.690;6.472;2023-01-15T06:57:37;4.70;99.90
15364;DHT22;7781;49.690;6.472;2023-01-15T07:00:09;4.70;99.90
15364;DHT22;7781;49.690;6.472;2023-01-15T07:02:38;4.70;99.90
15364;DHT22;7781;49.690;6.472;2023-01-15T07:05:10;4.70;99.90
15364;DHT22;7781;49.690;6.472;2023-01-15T07:07:39;4.70;99.90
15364;DHT22;7781;49.690;6.472;2023-01-15T07:10:10;4.70;99.90
15364;DHT22;7781;49.690;6.472;2023-01-15T07:12:39;4.70;99.90
15364;DHT22;7781;49.690;6.472;2023-01-15T07:15:11;4.70;99.90
15364;DHT22;7781;49.690;6.472;2023-01-15T07:17:40;4.70;99.90
15364;DHT22;7781;49.690;6.472;2023-01-15T07:20:10;4.60;99.90
15364;DHT22;7781;49.690;6.472;2023-01-15T07:22:39;4.70;99.90
15364;DHT22;7781;49.690;6.472;2023-01-15T07:25:12;4.70;99.90
15364;DHT22;7781;49.690;6.472;2023-01-15T07:27:40;4.70;99.90
15364;DHT22;7781;49.690;6.472;2023-01-15T07:30:11;4.70;99.90
15364;DHT22;7781;49.690;6.472;2023-01-15T07:32:42;4.70;99.90
15364;DHT22;7781;49.690;6.472;2023-01-15T07:35:10;4.70;99.90
15364;DHT22;7781;49.690;6.472;2023-01-15T07:37:39;4.80;99.90
15364;DHT22;7781;49.690;6.472;2023-01-15T07:40:14;4.90;99.90
15364;DHT22;7781;49.690;6.472;2023-01-15T07:42:43;4.90;99.90
15364;DHT22;7781;49.690;6.472;2023-01-15T07:45:29;4.80;99.90
15364;DHT22;7781;49.690;6.472;2023-01-15T07:48:28;4.60;99.90
15364;DHT22;7781;49.690;6.472;2023-01-15T07:51:14;4.50;99.90
15364;DHT22;7781;49.690;6.472;2023-01-15T07:53:43;4.30;99.90
15364;DHT22;7781;49.690;6.472;2023-01-15T07:56:15;4.30;99.90
15364;DHT22;7781;49.690;6.472;2023-01-15T07:58:44;4.30;99.90
15364;DHT22;7781;49.690;6.472;2023-01-15T08:01:17;4.40;99.90
15364;DHT22;7781;49.690;6.472;2023-01-15T08:03:46;4.40;99.90
15364;DHT22;7781;49.690;6.472;2023-01-15T08:06:16;4.40;99.90
15364;DHT22;7781;49.690;6.472;2023-01-15T08:08:45;4.40;99.90
15364;DHT22;7781;49.690;6.472;2023-01-15T08:11:15;4.50;99.90
15364;DHT22;7781;49.690;6.472;2023-01-15T08:14:02;4.50;99.90
15364;DHT22;7781;49.690;6.472;2023-01-15T08:16:49;4.50;99.90
15364;DHT22;7781;49.690;6.472;2023-01-15T08:19:17;4.50;99.90
15364;DHT22;7781;49.690;6.472;2023-01-15T08:21:46;4.50;99.90
15364;DHT22;7781;49.690;6.472;2023-01-15T08:24:15;4.50;99.90
15364;DHT22;7781;49.690;6.472;2023-01-15T08:26:45;4.40;99.90
15364;DHT22;7781;49.690;6.472;2023-01-15T08:29:14;4.40;99.90
15364;DHT22;7781;49.690;6.472;2023-01-15T08:31:43;4.30;99.90
15364;DHT22;7781;49.690;6.472;2023-01-15T08:34:12;4.20;99.90
15364;DHT22;7781;49.690;6.472;2023-01-15T08:36:40;4.00;99.90
15364;DHT22;7781;49.690;6.472;2023-01-15T08:39:09;3.80;99.90
15364;DHT22;7781;49.690;6.472;2023-01-15T08:41:37;3.70;99.90
15364;DHT22;7781;49.690;6.472;2023-01-15T08:44:08;3.60;99.90
15364;DHT22;7781;49.690;6.472;2023-01-15T08:46:37;3.60;99.90
15364;DHT22;7781;49.690;6.472;2023-01-15T08:49:07;3.60;99.90
15364;DHT22;7781;49.690;6.472;2023-01-15T08:51:37;3.40;99.90
15364;DHT22;7781;49.690;6.472;2023-01-15T08:54:07;3.30;99.90
15364;DHT22;7781;49.690;6.472;2023-01-15T08:56:37;3.30;99.90
15364;DHT22;7781;49.690;6.472;2023-01-15T08:59:07;3.20;99.90
15364;DHT22;7781;49.690;6.472;2023-01-15T09:01:36;3.10;99.90
15364;DHT22;7781;49.690;6.472;2023-01-15T09:04:06;3.20;99.90
15364;DHT22;7781;49.690;6.472;2023-01-15T09:06:38;3.30;99.90
15364;DHT22;7781;49.690;6.472;2023-01-15T09:09:06;3.30;99.90
15364;DHT22;7781;49.690;6.472;2023-01-15T09:11:39;3.40;99.90
15364;DHT22;7781;49.690;6.472;2023-01-15T09:14:12;3.30;99.90
15364;DHT22;7781;49.690;6.472;2023-01-15T09:17:01;3.30;99.90
15364;DHT22;7781;49.690;6.472;2023-01-15T09:19:31;3.30;99.90
15364;DHT22;7781;49.690;6.472;2023-01-15T09:22:00;3.30;99.90
15364;DHT22;7781;49.690;6.472;2023-01-15T09:24:29;3.20;99.90
15364;DHT22;7781;49.690;6.472;2023-01-15T09:26:58;3.30;99.90
15364;DHT22;7781;49.690;6.472;2023-01-15T09:29:28;3.30;99.90
15364;DHT22;7781;49.690;6.472;2023-01-15T09:31:57;3.30;99.90
15364;DHT22;7781;49.690;6.472;2023-01-15T09:34:26;3.30;99.90
15364;DHT22;7781;49.690;6.472;2023-01-15T09:36:54;3.40;99.90
15364;DHT22;7781;49.690;6.472;2023-01-15T09:39:23;3.40;99.90
15364;DHT22;7781;49.690;6.472;2023-01-15T09:42:02;3.50;99.90
15364;DHT22;7781;49.690;6.472;2023-01-15T09:44:44;3.50;99.90
15364;DHT22;7781;49.690;6.472;2023-01-15T09:47:23;3.60;99.90
15364;DHT22;7781;49.690;6.472;2023-01-15T09:50:02;3.60;99.90
15364;DHT22;7781;49.690;6.472;2023-01-15T09:52:43;3.60;99.90
15364;DHT22;7781;49.690;6.472;2023-01-15T09:55:22;3.70;99.90
15364;DHT22;7781;49.690;6.472;2023-01-15T09:58:18;3.70;99.90
15364;DHT22;7781;49.690;6.472;2023-01-15T10:00:52;3.70;99.90
15364;DHT22;7781;49.690;6.472;2023-01-15T10:03:27;3.80;99.90
15364;DHT22;7781;49.690;6.472;2023-01-15T10:06:06;3.90;99.90
15364;DHT22;7781;49.690;6.472;2023-01-15T10:08:44;4.00;99.90
15364;DHT22;7781;49.690;6.472;2023-01-15T10:11:30;4.10;99.90
15364;DHT22;7781;49.690;6.472;2023-01-15T10:14:24;4.20;99.90
15364;DHT22;7781;49.690;6.472;2023-01-15T10:16:59;4.30;99.90
15364;DHT22;7781;49.690;6.472;2023-01-15T10:19:28;4.40;99.90
15364;DHT22;7781;49.690;6.472;2023-01-15T10:22:19;4.50;99.90
15364;DHT22;7781;49.690;6.472;2023-01-15T10:24:55;4.60;99.90
15364;DHT22;7781;49.690;6.472;2023-01-15T10:27:27;4.60;99.90
15364;DHT22;7781;49.690;6.472;2023-01-15T10:30:04;4.60;99.90
15364;DHT22;7781;49.690;6.472;2023-01-15T10:32:42;4.70;99.90
15364;DHT22;7781;49.690;6.472;2023-01-15T10:35:35;4.80;99.90
15364;DHT22;7781;49.690;6.472;2023-01-15T10:38:16;4.80;99.90
15364;DHT22;7781;49.690;6.472;2023-01-15T10:43:46;4.80;99.90
15364;DHT22;7781;49.690;6.472;2023-01-15T10:46:17;4.90;99.90
15364;DHT22;7781;49.690;6.472;2023-01-15T10:48:50;5.00;99.90
15364;DHT22;7781;49.690;6.472;2023-01-15T10:51:25;5.10;99.90
15364;DHT22;7781;49.690;6.472;2023-01-15T10:53:59;5.20;99.90
15364;DHT22;7781;49.690;6.472;2023-01-15T10:56:34;5.30;99.90
15364;DHT22;7781;49.690;6.472;2023-01-15T10:59:12;5.40;99.90
15364;DHT22;7781;49.690;6.472;2023-01-15T11:01:42;5.50;99.90
15364;DHT22;7781;49.690;6.472;2023-01-15T11:04:12;5.50;99.90
15364;DHT22;7781;49.690;6.472;2023-01-15T11:06:41;5.60;99.90
15364;DHT22;7781;49.690;6.472;2023-01-15T11:09:20;5.70;99.90
15364;DHT22;7781;49.690;6.472;2023-01-15T11:12:02;5.90;99.90
15364;DHT22;7781;49.690;6.472;2023-01-15T11:14:52;5.90;99.90
15364;DHT22;7781;49.690;6.472;2023-01-15T11:17:42;5.90;99.90
15364;DHT22;7781;49.690;6.472;2023-01-15T11:20:35;5.90;99.90
15364;DHT22;7781;49.690;6.472;2023-01-15T11:23:11;5.90;99.90
15364;DHT22;7781;49.690;6.472;2023-01-15T11:25:48;5.90;99.90
15364;DHT22;7781;49.690;6.472;2023-01-15T11:28:28;5.90;99.90
15364;DHT22;7781;49.690;6.472;2023-01-15T11:34:19;6.00;99.90
15364;DHT22;7781;49.690;6.472;2023-01-15T11:37:00;6.00;99.90
15364;DHT22;7781;49.690;6.472;2023-01-15T11:39:29;5.90;99.90
15364;DHT22;7781;49.690;6.472;2023-01-15T11:41:59;6.00;99.90
15364;DHT22;7781;49.690;6.472;2023-01-15T11:44:53;6.00;99.90
15364;DHT22;7781;49.690;6.472;2023-01-15T11:47:50;6.00;99.90
15364;DHT22;7781;49.690;6.472;2023-01-15T11:50:39;6.00;99.90
15364;DHT22;7781;49.690;6.472;2023-01-15T11:53:22;6.00;99.90
15364;DHT22;7781;49.690;6.472;2023-01-15T11:55:57;6.00;99.90
15364;DHT22;7781;49.690;6.472;2023-01-15T11:58:37;6.00;99.90
15364;DHT22;7781;49.690;6.472;2023-01-15T12:01:07;6.00;99.90
15364;DHT22;7781;49.690;6.472;2023-01-15T12:03:36;6.10;99.90
15364;DHT22;7781;49.690;6.472;2023-01-15T12:06:10;6.10;99.90
15364;DHT22;7781;49.690;6.472;2023-01-15T12:08:46;6.10;99.90
15364;DHT22;7781;49.690;6.472;2023-01-15T12:11:38;6.10;99.90
15364;DHT22;7781;49.690;6.472;2023-01-15T12:14:36;6.10;99.90
15364;DHT22;7781;49.690;6.472;2023-01-15T12:17:23;6.10;99.90
15364;DHT22;7781;49.690;6.472;2023-01-15T12:20:04;6.20;99.90
15364;DHT22;7781;49.690;6.472;2023-01-15T12:22:51;6.20;99.90
15364;DHT22;7781;49.690;6.472;2023-01-15T12:25:33;6.20;99.90
15364;DHT22;7781;49.690;6.472;2023-01-15T12:28:10;6.30;99.90
15364;DHT22;7781;49.690;6.472;2023-01-15T12:30:50;6.30;99.90
15364;DHT22;7781;49.690;6.472;2023-01-15T12:33:30;6.40;99.90
15364;DHT22;7781;49.690;6.472;2023-01-15T12:36:07;6.40;99.90
15364;DHT22;7781;49.690;6.472;2023-01-15T12:38:49;6.40;99.90
15364;DHT22;7781;49.690;6.472;2023-01-15T12:41:23;6.50;99.90
15364;DHT22;7781;49.690;6.472;2023-01-15T12:44:16;6.50;99.90
15364;DHT22;7781;49.690;6.472;2023-01-15T12:47:07;6.60;99.90
15364;DHT22;7781;49.690;6.472;2023-01-15T12:49:42;6.60;99.90
15364;DHT22;7781;49.690;6.472;2023-01-15T12:52:17;6.50;99.90
15364;DHT22;7781;49.690;6.472;2023-01-15T12:54:56;6.50;99.90
15364;DHT22;7781;49.690;6.472;2023-01-15T13:02:03;6.50;99.90
15364;DHT22;7781;49.690;6.472;2023-01-15T13:05:20;6.50;99.90
15364;DHT22;7781;49.690;6.472;2023-01-15T13:12:20;6.50;99.90
15364;DHT22;7781;49.690;6.472;2023-01-15T13:14:49;6.50;99.90
15364;DHT22;7781;49.690;6.472;2023-01-15T13:17:25;6.50;99.90
15364;DHT22;7781;49.690;6.472;2023-01-15T13:20:15;6.50;99.90
15364;DHT22;7781;49.690;6.472;2023-01-15T13:22:53;6.50;99.90
15364;DHT22;7781;49.690;6.472;2023-01-15T13:25:33;6.50;99.90
15364;DHT22;7781;49.690;6.472;2023-01-15T13:28:16;6.50;99.90
15364;DHT22;7781;49.690;6.472;2023-01-15T13:30:56;6.50;99.90
15364;DHT22;7781;49.690;6.472;2023-01-15T13:33:32;6.50;99.90
15364;DHT22;7781;49.690;6.472;2023-01-15T13:36:07;6.40;99.90
15364;DHT22;7781;49.690;6.472;2023-01-15T13:38:40;6.50;99.90
15364;DHT22;7781;49.690;6.472;2023-01-15T13:41:16;6.50;99.90
15364;DHT22;7781;49.690;6.472;2023-01-15T13:44:15;6.40;99.90
15364;DHT22;7781;49.690;6.472;2023-01-15T13:46:46;6.40;99.90
15364;DHT22;7781;49.690;6.472;2023-01-15T13:49:30;6.30;99.90
15364;DHT22;7781;49.690;6.472;2023-01-15T13:52:04;6.20;99.90
15364;DHT22;7781;49.690;6.472;2023-01-15T13:54:39;6.10;99.90
15364;DHT22;7781;49.690;6.472;2023-01-15T13:57:08;6.10;99.90
15364;DHT22;7781;49.690;6.472;2023-01-15T13:59:41;6.10;99.90
15364;DHT22;7781;49.690;6.472;2023-01-15T14:02:28;6.10;99.90
15364;DHT22;7781;49.690;6.472;2023-01-15T14:05:22;5.90;99.90
15364;DHT22;7781;49.690;6.472;2023-01-15T14:07:53;5.80;99.90
15364;DHT22;7781;49.690;6.472;2023-01-15T14:10:32;5.60;99.90
15364;DHT22;7781;49.690;6.472;2023-01-15T14:14:01;5.40;99.90
15364;DHT22;7781;49.690;6.472;2023-01-15T14:20:37;5.10;99.90
15364;DHT22;7781;49.690;6.472;2023-01-15T14:23:39;5.10;99.90
15364;DHT22;7781;49.690;6.472;2023-01-15T14:26:45;5.10;99.90
15364;DHT22;7781;49.690;6.472;2023-01-15T14:29:43;5.20;99.90
15364;DHT22;7781;49.690;6.472;2023-01-15T14:32:27;5.20;99.90
15364;DHT22;7781;49.690;6.472;2023-01-15T14:35:01;5.30;99.90
15364;DHT22;7781;49.690;6.472;2023-01-15T14:37:44;5.40;99.90
15364;DHT22;7781;49.690;6.472;2023-01-15T14:40:21;5.50;99.90
15364;DHT22;7781;49.690;6.472;2023-01-15T14:42:53;5.60;99.90
15364;DHT22;7781;49.690;6.472;2023-01-15T14:45:31;5.60;99.90
15364;DHT22;7781;49.690;6.472;2023-01-15T14:48:17;5.70;99.90
15364;DHT22;7781;49.690;6.472;2023-01-15T14:50:46;5.70;99.90
15364;DHT22;7781;49.690;6.472;2023-01-15T14:53:37;5.70;99.90
15364;DHT22;7781;49.690;6.472;2023-01-15T14:56:15;5.80;99.90
15364;DHT22;7781;49.690;6.472;2023-01-15T14:58:58;5.80;99.90
15364;DHT22;7781;49.690;6.472;2023-01-15T15:01:42;5.80;99.90
15364;DHT22;7781;49.690;6.472;2023-01-15T15:04:53;5.80;99.90
15364;DHT22;7781;49.690;6.472;2023-01-15T15:07:25;5.80;99.90
15364;DHT22;7781;49.690;6.472;2023-01-15T15:10:04;5.70;99.90
15364;DHT22;7781;49.690;6.472;2023-01-15T15:12:38;5.70;99.90
15364;DHT22;7781;49.690;6.472;2023-01-15T15:15:18;5.70;99.90
15364;DHT22;7781;49.690;6.472;2023-01-15T15:17:56;5.70;99.90
15364;DHT22;7781;49.690;6.472;2023-01-15T15:20:32;5.70;99.90
15364;DHT22;7781;49.690;6.472;2023-01-15T15:23:11;5.70;99.90
15364;DHT22;7781;49.690;6.472;2023-01-15T15:25:54;5.70;99.90
15364;DHT22;7781;49.690;6.472;2023-01-15T15:28:26;5.70;99.90
15364;DHT22;7781;49.690;6.472;2023-01-15T15:30:57;5.60;99.90
15364;DHT22;7781;49.690;6.472;2023-01-15T15:33:36;5.70;99.90
15364;DHT22;7781;49.690;6.472;2023-01-15T15:36:08;5.60;99.90
15364;DHT22;7781;49.690;6.472;2023-01-15T15:38:38;5.60;99.90
15364;DHT22;7781;49.690;6.472;2023-01-15T15:41:16;5.70;99.90
15364;DHT22;7781;49.690;6.472;2023-01-15T15:44:11;5.70;99.90
15364;DHT22;7781;49.690;6.472;2023-01-15T15:46:58;5.70;99.90
15364;DHT22;7781;49.690;6.472;2023-01-15T15:49:48;5.70;99.90
15364;DHT22;7781;49.690;6.472;2023-01-15T15:52:20;5.70;99.90
15364;DHT22;7781;49.690;6.472;2023-01-15T15:54:56;5.70;99.90
15364;DHT22;7781;49.690;6.472;2023-01-15T15:57:45;5.70;99.90
15364;DHT22;7781;49.690;6.472;2023-01-15T16:00:18;5.70;99.90
15364;DHT22;7781;49.690;6.472;2023-01-15T16:02:47;5.70;99.90
15364;DHT22;7781;49.690;6.472;2023-01-15T16:05:21;5.70;99.90
15364;DHT22;7781;49.690;6.472;2023-01-15T16:18:49;5.60;99.90
15364;DHT22;7781;49.690;6.472;2023-01-15T16:21:21;5.60;99.90
15364;DHT22;7781;49.690;6.472;2023-01-15T16:24:25;5.50;99.90
15364;DHT22;7781;49.690;6.472;2023-01-15T16:27:40;5.50;99.90
15364;DHT22;7781;49.690;6.472;2023-01-15T16:30:15;5.50;99.90
15364;DHT22;7781;49.690;6.472;2023-01-15T16:32:48;5.50;99.90
15364;DHT22;7781;49.690;6.472;2023-01-15T16:36:10;5.50;99.90
15364;DHT22;7781;49.690;6.472;2023-01-15T16:38:48;5.50;99.90
15364;DHT22;7781;49.690;6.472;2023-01-15T16:41:19;5.60;99.90
15364;DHT22;7781;49.690;6.472;2023-01-15T16:43:51;5.50;99.90
15364;DHT22;7781;49.690;6.472;2023-01-15T16:46:40;5.50;99.90
15364;DHT22;7781;49.690;6.472;2023-01-15T16:49:33;5.50;99.90
15364;DHT22;7781;49.690;6.472;2023-01-15T16:52:48;5.50;99.90
15364;DHT22;7781;49.690;6.472;2023-01-15T16:55:40;5.40;99.90
15364;DHT22;7781;49.690;6.472;2023-01-15T16:58:18;5.40;99.90
15364;DHT22;7781;49.690;6.472;2023-01-15T17:00:53;5.40;99.90
15364;DHT22;7781;49.690;6.472;2023-01-15T17:03:41;5.40;99.90
15364;DHT22;7781;49.690;6.472;2023-01-15T17:06:59;5.40;99.90
15364;DHT22;7781;49.690;6.472;2023-01-15T17:20:44;5.40;99.90
15364;DHT22;7781;49.690;6.472;2023-01-15T17:23:33;5.20;99.90
15364;DHT22;7781;49.690;6.472;2023-01-15T17:26:14;5.20;99.90
15364;DHT22;7781;49.690;6.472;2023-01-15T17:28:47;5.20;99.90
15364;DHT22;7781;49.690;6.472;2023-01-15T17:31:32;5.30;99.90
15364;DHT22;7781;49.690;6.472;2023-01-15T17:34:32;5.30;99.90
15364;DHT22;7781;49.690;6.472;2023-01-15T17:48:11;5.40;99.90
15364;DHT22;7781;49.690;6.472;2023-01-15T17:50:46;5.30;99.90
15364;DHT22;7781;49.690;6.472;2023-01-15T17:53:14;5.40;99.90